sensor_id;sensor_type;location;lat;lon;timestamp;temperature;humidity
1277;DHT22;631;51.024;13.826;2023-05-06T00:02:00;14.20;99.90
1277;DHT22;631;51.024;13.826;2023-05-06T00:04:26;14.20;99.90
1277;DHT22;631;51.024;13.826;2023-05-06T00:06:52;14.10;99.90
1277;DHT22;631;51.024;13.826;2023-05-06T00:09:18;14.00;99.90
1277;DHT22;631;51.024;13.826;2023-05-06T00:11:44;13.90;99.90
1277;DHT22;631;51.024;13.826;2023-05-06T00:14:11;13.90;99.90
1277;DHT22;631;51.024;13.826;2023-05-06T00:16:36;13.80;99.90
1277;DHT22;631;51.024;13.826;2023-05-06T00:19:02;13.70;99.90
1277;DHT22;631;51.024;13.826;2023-05-06T00:21:28;13.70;99.90
1277;DHT22;631;51.024;13.826;2023-05-06T00:23:54;13.70;99.90
1277;DHT22;631;51.024;13.826;2023-05-06T00:26:19;13.60;99.90
1277;DHT22;631;51.024;13.826;2023-05-06T00:28:45;13.60;99.90
1277;DHT22;631;51.024;13.826;2023-05-06T00:31:10;13.60;99.90
1277;DHT22;631;51.024;13.826;2023-05-06T00:33:36;13.50;99.90
1277;DHT22;631;51.024;13.826;2023-05-06T00:36:02;13.40;99.90
1277;DHT22;631;51.024;13.826;2023-05-06T00:38:27;13.40;99.90
1277;DHT22;631;51.024;13.826;2023-05-06T00:40:53;13.30;99.90
1277;DHT22;631;51.024;13.826;2023-05-06T00:43:19;13.30;99.90
1277;DHT22;631;51.024;13.826;2023-05-06T00:45:44;13.20;99.90
1277;DHT22;631;51.024;13.826;2023-05-06T00:48:10;13.20;99.90
1277;DHT22;631;51.024;13.826;2023-05-06T00:50:37;13.20;99.90
1277;DHT22;631;51.024;13.826;2023-05-06T00:53:04;13.10;99.90
1277;DHT22;631;51.024;13.826;2023-05-06T00:55:32;13.10;99.90
1277;DHT22;631;51.024;13.826;2023-05-06T00:57:58;13.20;99.90
1277;DHT22;631;51.024;13.826;2023-05-06T01:00:24;13.10;99.90
1277;DHT22;631;51.024;13.826;2023-05-06T01:02:49;13.10;99.90
1277;DHT22;631;51.024;13.826;2023-05-06T01:05:17;13.10;99.90
1277;DHT22;631;51.024;13.826;2023-05-06T01:08:24;13.10;99.90
1277;DHT22;631;51.024;13.826;2023-05-06T01:10:45;13.10;99.90
1277;DHT22;631;51.024;13.826;2023-05-06T01:13:23;13.10;99.90
1277;DHT22;631;51.024;13.826;2023-05-06T01:15:58;13.10;99.90
1277;DHT22;631;51.024;13.826;2023-05-06T01:18:25;13.10;99.90
1277;DHT22;631;51.024;13.826;2023-05-06T01:20:53;13.10;99.90
1277;DHT22;631;51.024;13.826;2023-05-06T01:23:20;13.00;99.90
1277;DHT22;631;51.024;13.826;2023-05-06T01:25:46;12.90;99.90
1277;DHT22;631;51.024;13.826;2023-05-06T01:28:12;12.90;99.90
1277;DHT22;631;51.024;13.826;2023-05-06T01:30:52;12.90;99.90
1277;DHT22;631;51.024;13.826;2023-05-06T01:36:27;12.90;99.90
1277;DHT22;631;51.024;13.826;2023-05-06T01:41:23;12.80;99.90
1277;DHT22;631;51.024;13.826;2023-05-06T01:43:50;12.80;99.90
1277;DHT22;631;51.024;13.826;2023-05-06T01:46:18;12.80;99.90
1277;DHT22;631;51.024;13.826;2023-05-06T01:48:45;12.70;99.90
1277;DHT22;631;51.024;13.826;2023-05-06T01:51:11;12.70;99.90
1277;DHT22;631;51.024;13.826;2023-05-06T01:53:37;12.80;99.90
1277;DHT22;631;51.024;13.826;2023-05-06T01:56:03;12.80;99.90
1277;DHT22;631;51.024;13.826;2023-05-06T01:58:29;12.70;99.90
1277;DHT22;631;51.024;13.826;2023-05-06T02:00:54;12.70;99.90
1277;DHT22;631;51.024;13.826;2023-05-06T02:03:20;12.70;99.90
1277;DHT22;631;51.024;13.826;2023-05-06T02:05:46;12.70;99.90
1277;DHT22;631;51.024;13.826;2023-05-06T02:08:11;12.70;99.90
1277;DHT22;631;51.024;13.826;2023-05-06T02:10:37;12.70;99.90
1277;DHT22;631;51.024;13.826;2023-05-06T02:13:03;12.70;99.90
1277;DHT22;631;51.024;13.826;2023-05-06T02:15:29;12.70;99.90
1277;DHT22;631;51.024;13.826;2023-05-06T02:17:54;12.70;99.90
1277;DHT22;631;51.024;13.826;2023-05-06T02:20:21;12.70;99.90
1277;DHT22;631;51.024;13.826;2023-05-06T02:22:47;12.70;99.90
1277;DHT22;631;51.024;13.826;2023-05-06T02:25:12;12.70;99.90
1277;DHT22;631;51.024;13.826;2023-05-06T02:27:38;12.70;99.90
1277;DHT22;631;51.024;13.826;2023-05-06T02:30:04;12.70;99.90
1277;DHT22;631;51.024;13.826;2023-05-06T02:32:30;12.70;99.90
1277;DHT22;631;51.024;13.826;2023-05-06T02:34:56;12.70;99.90
1277;DHT22;631;51.024;13.826;2023-05-06T02:37:22;12.70;99.90
1277;DHT22;631;51.024;13.826;2023-05-06T02:39:47;12.70;99.90
1277;DHT22;631;51.024;13.826;2023-05-06T02:42:13;12.70;99.90
1277;DHT22;631;51.024;13.826;2023-05-06T02:44:40;12.70;99.90
1277;DHT22;631;51.024;13.826;2023-05-06T02:47:06;12.70;99.90
1277;DHT22;631;51.024;13.826;2023-05-06T02:49:31;12.70;99.90
1277;DHT22;631;51.024;13.826;2023-05-06T02:51:57;12.70;99.90
1277;DHT22;631;51.024;13.826;2023-05-06T02:54:23;12.70;99.90
1277;DHT22;631;51.024;13.826;2023-05-06T02:56:48;12.70;99.90
1277;DHT22;631;51.024;13.826;2023-05-06T02:59:15;12.70;99.90
1277;DHT22;631;51.024;13.826;2023-05-06T03:01:41;12.70;99.90
1277;DHT22;631;51.024;13.826;2023-05-06T03:04:06;12.70;99.90
1277;DHT22;631;51.024;13.826;2023-05-06T03:06:32;12.70;99.90
1277;DHT22;631;51.024;13.826;2023-05-06T03:08:58;12.80;99.90
1277;DHT22;631;51.024;13.826;2023-05-06T03:11:23;12.80;99.90
1277;DHT22;631;51.024;13.826;2023-05-06T03:13:49;12.80;99.90
1277;DHT22;631;51.024;13.826;2023-05-06T03:16:15;12.80;99.90
1277;DHT22;631;51.024;13.826;2023-05-06T03:18:41;12.80;99.90
1277;DHT22;631;51.024;13.826;2023-05-06T03:21:07;12.80;99.90
1277;DHT22;631;51.024;13.826;2023-05-06T03:23:32;12.80;99.90
1277;DHT22;631;51.024;13.826;2023-05-06T03:25:58;12.80;99.90
1277;DHT22;631;51.024;13.826;2023-05-06T03:28:23;12.80;99.90
1277;DHT22;631;51.024;13.826;2023-05-06T03:30:49;12.80;99.90
1277;DHT22;631;51.024;13.826;2023-05-06T03:33:15;12.80;99.90
1277;DHT22;631;51.024;13.826;2023-05-06T03:35:40;12.80;99.90
1277;DHT22;631;51.024;13.826;2023-05-06T03:38:06;12.80;99.90
1277;DHT22;631;51.024;13.826;2023-05-06T03:40:32;12.80;99.90
1277;DHT22;631;51.024;13.826;2023-05-06T03:42:57;12.80;99.90
1277;DHT22;631;51.024;13.826;2023-05-06T03:45:23;12.80;99.90
1277;DHT22;631;51.024;13.826;2023-05-06T03:47:49;12.80;99.90
1277;DHT22;631;51.024;13.826;2023-05-06T03:50:14;12.80;99.90
1277;DHT22;631;51.024;13.826;2023-05-06T03:52:40;12.90;99.90
1277;DHT22;631;51.024;13.826;2023-05-06T03:55:06;12.90;99.90
1277;DHT22;631;51.024;13.826;2023-05-06T03:57:32;12.90;99.90
1277;DHT22;631;51.024;13.826;2023-05-06T03:59:57;13.00;99.90
1277;DHT22;631;51.024;13.826;2023-05-06T04:02:23;13.00;99.90
1277;DHT22;631;51.024;13.826;2023-05-06T04:04:49;13.00;99.90
1277;DHT22;631;51.024;13.826;2023-05-06T04:07:14;13.00;99.90
1277;DHT22;631;51.024;13.826;2023-05-06T04:09:40;13.10;99.90
1277;DHT22;631;51.024;13.826;2023-05-06T04:12:06;13.10;99.90
1277;DHT22;631;51.024;13.826;2023-05-06T04:14:31;13.10;99.90
1277;DHT22;631;51.024;13.826;2023-05-06T04:16:57;13.10;99.90
1277;DHT22;631;51.024;13.826;2023-05-06T04:19:23;13.00;99.90
1277;DHT22;631;51.024;13.826;2023-05-06T04:21:48;13.00;99.90
1277;DHT22;631;51.024;13.826;2023-05-06T04:24:14;13.00;99.90
1277;DHT22;631;51.024;13.826;2023-05-06T04:26:41;13.00;99.90
1277;DHT22;631;51.024;13.826;2023-05-06T04:29:07;12.90;99.90
1277;DHT22;631;51.024;13.826;2023-05-06T04:31:33;13.00;99.90
1277;DHT22;631;51.024;13.826;2023-05-06T04:33:59;12.90;99.90
1277;DHT22;631;51.024;13.826;2023-05-06T04:36:25;12.90;99.90
1277;DHT22;631;51.024;13.826;2023-05-06T04:38:51;12.80;99.90
1277;DHT22;631;51.024;13.826;2023-05-06T04:41:17;12.80;99.90
1277;DHT22;631;51.024;13.826;2023-05-06T04:43:43;12.80;99.90
1277;DHT22;631;51.024;13.826;2023-05-06T04:46:09;12.80;99.90
1277;DHT22;631;51.024;13.826;2023-05-06T04:48:35;12.80;99.90
1277;DHT22;631;51.024;13.826;2023-05-06T04:51:02;12.80;99.90
1277;DHT22;631;51.024;13.826;2023-05-06T04:53:30;12.80;99.90
1277;DHT22;631;51.024;13.826;2023-05-06T04:55:56;12.80;99.90
1277;DHT22;631;51.024;13.826;2023-05-06T04:58:22;12.90;99.90
1277;DHT22;631;51.024;13.826;2023-05-06T05:00:47;12.90;99.90
1277;DHT22;631;51.024;13.826;2023-05-06T05:03:13;12.90;99.90
1277;DHT22;631;51.024;13.826;2023-05-06T05:05:39;13.00;99.90
1277;DHT22;631;51.024;13.826;2023-05-06T05:08:05;13.10;99.90
1277;DHT22;631;51.024;13.826;2023-05-06T05:10:30;13.10;99.90
1277;DHT22;631;51.024;13.826;2023-05-06T05:12:56;13.10;99.90
1277;DHT22;631;51.024;13.826;2023-05-06T05:15:22;13.10;99.90
1277;DHT22;631;51.024;13.826;2023-05-06T05:17:49;13.10;99.90
1277;DHT22;631;51.024;13.826;2023-05-06T05:20:14;13.10;99.90
1277;DHT22;631;51.024;13.826;2023-05-06T05:22:40;13.10;99.90
1277;DHT22;631;51.024;13.826;2023-05-06T05:25:06;13.00;99.90
1277;DHT22;631;51.024;13.826;2023-05-06T05:27:32;13.10;99.90
1277;DHT22;631;51.024;13.826;2023-05-06T05:29:57;13.10;99.90
1277;DHT22;631;51.024;13.826;2023-05-06T05:32:23;13.20;99.90
1277;DHT22;631;51.024;13.826;2023-05-06T05:34:49;13.20;99.90
1277;DHT22;631;51.024;13.826;2023-05-06T05:37:14;13.20;99.90
1277;DHT22;631;51.024;13.826;2023-05-06T05:39:40;13.20;99.90
1277;DHT22;631;51.024;13.826;2023-05-06T05:42:06;13.30;99.90
1277;DHT22;631;51.024;13.826;2023-05-06T05:44:31;13.30;99.90
1277;DHT22;631;51.024;13.826;2023-05-06T05:46:57;13.40;99.90
1277;DHT22;631;51.024;13.826;2023-05-06T05:49:23;13.50;99.90
1277;DHT22;631;51.024;13.826;2023-05-06T05:51:48;13.50;99.90
1277;DHT22;631;51.024;13.826;2023-05-06T05:54:14;13.60;99.90
1277;DHT22;631;51.024;13.826;2023-05-06T05:56:40;13.60;99.90
1277;DHT22;631;51.024;13.826;2023-05-06T05:59:06;13.60;99.90
1277;DHT22;631;51.024;13.826;2023-05-06T06:01:32;13.70;99.90
1277;DHT22;631;51.024;13.826;2023-05-06T06:03:57;13.80;99.90
1277;DHT22;631;51.024;13.826;2023-05-06T06:06:24;13.80;99.90
1277;DHT22;631;51.024;13.826;2023-05-06T06:08:49;13.90;99.90
1277;DHT22;631;51.024;13.826;2023-05-06T06:11:15;13.90;99.90
1277;DHT22;631;51.024;13.826;2023-05-06T06:13:41;13.90;99.90
1277;DHT22;631;51.024;13.826;2023-05-06T06:16:07;13.90;99.90
1277;DHT22;631;51.024;13.826;2023-05-06T06:18:32;14.00;99.90
1277;DHT22;631;51.024;13.826;2023-05-06T06:20:58;14.10;99.90
1277;DHT22;631;51.024;13.826;2023-05-06T06:23:24;14.10;99.90
1277;DHT22;631;51.024;13.826;2023-05-06T06:25:49;14.20;99.90
1277;DHT22;631;51.024;13.826;2023-05-06T06:28:15;14.20;99.90
1277;DHT22;631;51.024;13.826;2023-05-06T06:30:40;14.30;99.90
1277;DHT22;631;51.024;13.826;2023-05-06T06:33:06;14.40;99.90
1277;DHT22;631;51.024;13.826;2023-05-06T06:35:32;14.40;99.90
1277;DHT22;631;51.024;13.826;2023-05-06T06:37:57;14.40;99.90
1277;DHT22;631;51.024;13.826;2023-05-06T06:40:24;14.50;99.90
1277;DHT22;631;51.024;13.826;2023-05-06T06:42:49;14.60;99.90
1277;DHT22;631;51.024;13.826;2023-05-06T06:45:16;14.60;99.90
1277;DHT22;631;51.024;13.826;2023-05-06T06:47:41;14.70;99.90
1277;DHT22;631;51.024;13.826;2023-05-06T06:50:08;14.80;99.90
1277;DHT22;631;51.024;13.826;2023-05-06T06:52:34;14.90;99.90
1277;DHT22;631;51.024;13.826;2023-05-06T06:55:00;14.90;99.90
1277;DHT22;631;51.024;13.826;2023-05-06T06:57:26;15.00;99.90
1277;DHT22;631;51.024;13.826;2023-05-06T06:59:52;15.20;99.90
1277;DHT22;631;51.024;13.826;2023-05-06T07:02:19;15.30;99.90
1277;DHT22;631;51.024;13.826;2023-05-06T07:04:45;15.30;99.90
1277;DHT22;631;51.024;13.826;2023-05-06T07:07:11;15.50;99.90
1277;DHT22;631;51.024;13.826;2023-05-06T07:09:37;15.60;99.90
1277;DHT22;631;51.024;13.826;2023-05-06T07:12:04;15.80;99.90
1277;DHT22;631;51.024;13.826;2023-05-06T07:14:30;16.00;99.90
1277;DHT22;631;51.024;13.826;2023-05-06T07:16:56;16.20;99.90
1277;DHT22;631;51.024;13.826;2023-05-06T07:19:22;16.50;99.90
1277;DHT22;631;51.024;13.826;2023-05-06T07:21:47;16.60;99.90
1277;DHT22;631;51.024;13.826;2023-05-06T07:24:13;16.40;99.90
1277;DHT22;631;51.024;13.826;2023-05-06T07:26:39;16.50;99.90
1277;DHT22;631;51.024;13.826;2023-05-06T07:29:04;16.60;99.90
1277;DHT22;631;51.024;13.826;2023-05-06T07:31:33;16.70;99.90
1277;DHT22;631;51.024;13.826;2023-05-06T07:33:59;16.90;99.90
1277;DHT22;631;51.024;13.826;2023-05-06T07:36:25;16.90;99.90
1277;DHT22;631;51.024;13.826;2023-05-06T07:38:52;17.00;99.90
1277;DHT22;631;51.024;13.826;2023-05-06T07:41:17;17.00;99.90
1277;DHT22;631;51.024;13.826;2023-05-06T07:43:43;17.00;99.90
1277;DHT22;631;51.024;13.826;2023-05-06T07:46:09;16.90;99.90
1277;DHT22;631;51.024;13.826;2023-05-06T07:48:35;16.80;99.90
1277;DHT22;631;51.024;13.826;2023-05-06T07:51:01;16.70;99.90
1277;DHT22;631;51.024;13.826;2023-05-06T07:53:27;16.70;99.90
1277;DHT22;631;51.024;13.826;2023-05-06T07:55:53;16.80;99.90
1277;DHT22;631;51.024;13.826;2023-05-06T07:58:21;16.90;99.90
1277;DHT22;631;51.024;13.826;2023-05-06T08:00:47;17.00;99.90
1277;DHT22;631;51.024;13.826;2023-05-06T08:03:12;17.00;99.90
1277;DHT22;631;51.024;13.826;2023-05-06T08:05:38;17.10;99.90
1277;DHT22;631;51.024;13.826;2023-05-06T08:08:04;17.10;99.90
1277;DHT22;631;51.024;13.826;2023-05-06T08:10:29;17.10;99.90
1277;DHT22;631;51.024;13.826;2023-05-06T08:12:55;17.10;99.90
1277;DHT22;631;51.024;13.826;2023-05-06T08:15:21;17.00;99.90
1277;DHT22;631;51.024;13.826;2023-05-06T08:17:46;17.10;99.90
1277;DHT22;631;51.024;13.826;2023-05-06T08:20:12;17.10;99.90
1277;DHT22;631;51.024;13.826;2023-05-06T08:22:38;17.10;99.90
1277;DHT22;631;51.024;13.826;2023-05-06T08:25:04;17.00;99.90
1277;DHT22;631;51.024;13.826;2023-05-06T08:27:30;16.90;99.90
1277;DHT22;631;51.024;13.826;2023-05-06T08:29:55;16.90;99.90
1277;DHT22;631;51.024;13.826;2023-05-06T08:32:21;16.60;99.90
1277;DHT22;631;51.024;13.826;2023-05-06T08:34:47;16.40;99.90
1277;DHT22;631;51.024;13.826;2023-05-06T08:37:13;16.30;99.90
1277;DHT22;631;51.024;13.826;2023-05-06T08:39:38;16.10;99.90
1277;DHT22;631;51.024;13.826;2023-05-06T08:42:04;16.00;99.90
1277;DHT22;631;51.024;13.826;2023-05-06T08:44:30;16.10;99.90
1277;DHT22;631;51.024;13.826;2023-05-06T08:46:58;16.00;99.90
1277;DHT22;631;51.024;13.826;2023-05-06T08:49:24;16.00;99.90
1277;DHT22;631;51.024;13.826;2023-05-06T08:51:50;15.90;99.90
1277;DHT22;631;51.024;13.826;2023-05-06T08:54:19;15.80;99.90
1277;DHT22;631;51.024;13.826;2023-05-06T08:56:51;15.80;99.90
1277;DHT22;631;51.024;13.826;2023-05-06T08:59:23;15.80;99.90
1277;DHT22;631;51.024;13.826;2023-05-06T09:01:50;15.80;99.90
1277;DHT22;631;51.024;13.826;2023-05-06T09:04:16;15.80;99.90
1277;DHT22;631;51.024;13.826;2023-05-06T09:06:43;15.70;99.90
1277;DHT22;631;51.024;13.826;2023-05-06T09:09:08;15.70;99.90
1277;DHT22;631;51.024;13.826;2023-05-06T09:11:35;15.70;99.90
1277;DHT22;631;51.024;13.826;2023-05-06T09:14:13;15.60;99.90
1277;DHT22;631;51.024;13.826;2023-05-06T09:16:41;15.70;99.90
1277;DHT22;631;51.024;13.826;2023-05-06T09:19:07;15.70;99.90
1277;DHT22;631;51.024;13.826;2023-05-06T09:21:34;15.70;99.90
1277;DHT22;631;51.024;13.826;2023-05-06T09:24:02;15.70;99.90
1277;DHT22;631;51.024;13.826;2023-05-06T09:26:29;15.70;99.90
1277;DHT22;631;51.024;13.826;2023-05-06T09:28:55;15.70;99.90
1277;DHT22;631;51.024;13.826;2023-05-06T09:31:21;15.80;99.90
1277;DHT22;631;51.024;13.826;2023-05-06T09:33:47;15.90;99.90
1277;DHT22;631;51.024;13.826;2023-05-06T09:36:13;16.00;99.90
1277;DHT22;631;51.024;13.826;2023-05-06T09:38:39;15.90;99.90
1277;DHT22;631;51.024;13.826;2023-05-06T09:41:06;15.90;99.90
1277;DHT22;631;51.024;13.826;2023-05-06T09:43:32;15.90;99.90
1277;DHT22;631;51.024;13.826;2023-05-06T09:45:58;15.90;99.90
1277;DHT22;631;51.024;13.826;2023-05-06T09:48:28;15.90;99.90
1277;DHT22;631;51.024;13.826;2023-05-06T09:50:55;15.90;99.90
1277;DHT22;631;51.024;13.826;2023-05-06T09:53:21;15.90;99.90
1277;DHT22;631;51.024;13.826;2023-05-06T09:55:48;15.90;99.90
1277;DHT22;631;51.024;13.826;2023-05-06T09:58:15;15.80;99.90
1277;DHT22;631;51.024;13.826;2023-05-06T10:00:42;15.80;99.90
1277;DHT22;631;51.024;13.826;2023-05-06T10:03:08;15.80;99.90
1277;DHT22;631;51.024;13.826;2023-05-06T10:05:36;15.80;99.90
1277;DHT22;631;51.024;13.826;2023-05-06T10:08:02;15.80;99.90
1277;DHT22;631;51.024;13.826;2023-05-06T10:10:33;16.00;99.90
1277;DHT22;631;51.024;13.826;2023-05-06T10:13:02;16.10;99.90
1277;DHT22;631;51.024;13.826;2023-05-06T10:15:29;16.20;99.90
1277;DHT22;631;51.024;13.826;2023-05-06T10:17:58;16.20;99.90
1277;DHT22;631;51.024;13.826;2023-05-06T10:20:26;16.30;99.90
1277;DHT22;631;51.024;13.826;2023-05-06T10:25:43;16.40;99.90
1277;DHT22;631;51.024;13.826;2023-05-06T10:28:10;16.40;99.90
1277;DHT22;631;51.024;13.826;2023-05-06T10:30:38;16.60;99.90
1277;DHT22;631;51.024;13.826;2023-05-06T10:35:59;16.60;99.90
1277;DHT22;631;51.024;13.826;2023-05-06T10:38:40;16.80;99.90
1277;DHT22;631;51.024;13.826;2023-05-06T10:41:07;16.70;99.90
1277;DHT22;631;51.024;13.826;2023-05-06T10:43:38;16.70;99.90
1277;DHT22;631;51.024;13.826;2023-05-06T10:46:12;16.80;99.90
1277;DHT22;631;51.024;13.826;2023-05-06T10:51:45;17.10;99.90
1277;DHT22;631;51.024;13.826;2023-05-06T10:59:20;17.60;99.90
1277;DHT22;631;51.024;13.826;2023-05-06T11:04:28;18.00;99.90
1277;DHT22;631;51.024;13.826;2023-05-06T11:07:11;18.10;99.90
1277;DHT22;631;51.024;13.826;2023-05-06T11:10:00;18.30;99.90
1277;DHT22;631;51.024;13.826;2023-05-06T11:12:48;18.40;99.90
1277;DHT22;631;51.024;13.826;2023-05-06T11:15:32;18.50;99.90
1277;DHT22;631;51.024;13.826;2023-05-06T11:26:17;17.90;99.90
1277;DHT22;631;51.024;13.826;2023-05-06T11:28:44;17.80;99.90
1277;DHT22;631;51.024;13.826;2023-05-06T11:31:12;17.80;99.90
1277;DHT22;631;51.024;13.826;2023-05-06T11:33:44;17.80;99.90
1277;DHT22;631;51.024;13.826;2023-05-06T11:36:18;17.70;99.90
1277;DHT22;631;51.024;13.826;2023-05-06T11:38:50;17.70;99.90
1277;DHT22;631;51.024;13.826;2023-05-06T11:41:22;17.70;99.90
1277;DHT22;631;51.024;13.826;2023-05-06T11:43:48;17.80;99.90
1277;DHT22;631;51.024;13.826;2023-05-06T11:46:18;18.10;99.90
1277;DHT22;631;51.024;13.826;2023-05-06T11:48:43;18.20;99.90
1277;DHT22;631;51.024;13.826;2023-05-06T11:51:09;18.50;99.90
1277;DHT22;631;51.024;13.826;2023-05-06T11:53:35;18.70;99.90
1277;DHT22;631;51.024;13.826;2023-05-06T11:56:02;18.50;99.90
1277;DHT22;631;51.024;13.826;2023-05-06T11:58:29;18.70;99.90
1277;DHT22;631;51.024;13.826;2023-05-06T12:01:00;18.80;99.90
1277;DHT22;631;51.024;13.826;2023-05-06T12:03:28;18.90;99.90
1277;DHT22;631;51.024;13.826;2023-05-06T12:05:54;19.10;99.90
1277;DHT22;631;51.024;13.826;2023-05-06T12:08:26;19.30;99.90
1277;DHT22;631;51.024;13.826;2023-05-06T12:10:55;19.30;99.90
1277;DHT22;631;51.024;13.826;2023-05-06T12:13:22;19.40;98.80
1277;DHT22;631;51.024;13.826;2023-05-06T12:15:48;19.80;99.60
1277;DHT22;631;51.024;13.826;2023-05-06T12:18:15;20.30;97.30
1277;DHT22;631;51.024;13.826;2023-05-06T12:20:41;20.70;95.40
1277;DHT22;631;51.024;13.826;2023-05-06T12:23:11;21.00;93.60
1277;DHT22;631;51.024;13.826;2023-05-06T12:25:37;21.00;92.30
1277;DHT22;631;51.024;13.826;2023-05-06T12:28:13;21.00;91.70
1277;DHT22;631;51.024;13.826;2023-05-06T12:30:39;21.00;93.70
1277;DHT22;631;51.024;13.826;2023-05-06T12:33:07;20.80;92.60
1277;DHT22;631;51.024;13.826;2023-05-06T12:35:33;20.70;92.90
1277;DHT22;631;51.024;13.826;2023-05-06T12:38:09;20.70;94.80
1277;DHT22;631;51.024;13.826;2023-05-06T12:40:36;20.70;94.10
1277;DHT22;631;51.024;13.826;2023-05-06T12:43:02;20.80;95.20
1277;DHT22;631;51.024;13.826;2023-05-06T12:45:28;20.70;93.40
1277;DHT22;631;51.024;13.826;2023-05-06T12:47:58;20.50;94.00
1277;DHT22;631;51.024;13.826;2023-05-06T12:50:39;20.20;94.90
1277;DHT22;631;51.024;13.826;2023-05-06T12:53:07;20.40;95.00
1277;DHT22;631;51.024;13.826;2023-05-06T12:55:35;20.70;94.50
1277;DHT22;631;51.024;13.826;2023-05-06T12:58:01;20.80;93.90
1277;DHT22;631;51.024;13.826;2023-05-06T13:00:27;21.00;92.50
1277;DHT22;631;51.024;13.826;2023-05-06T13:02:53;21.20;92.50
1277;DHT22;631;51.024;13.826;2023-05-06T13:05:18;21.40;91.00
1277;DHT22;631;51.024;13.826;2023-05-06T13:07:44;21.40;90.00
1277;DHT22;631;51.024;13.826;2023-05-06T13:10:09;21.20;90.00
1277;DHT22;631;51.024;13.826;2023-05-06T13:12:35;21.10;90.90
1277;DHT22;631;51.024;13.826;2023-05-06T13:15:01;21.20;90.90
1277;DHT22;631;51.024;13.826;2023-05-06T13:17:27;21.30;91.60
1277;DHT22;631;51.024;13.826;2023-05-06T13:19:54;21.40;90.30
1277;DHT22;631;51.024;13.826;2023-05-06T13:22:20;21.40;90.60
1277;DHT22;631;51.024;13.826;2023-05-06T13:24:46;21.20;90.30
1277;DHT22;631;51.024;13.826;2023-05-06T13:27:11;21.30;90.80
1277;DHT22;631;51.024;13.826;2023-05-06T13:29:37;21.50;91.50
1277;DHT22;631;51.024;13.826;2023-05-06T13:32:03;21.90;89.40
1277;DHT22;631;51.024;13.826;2023-05-06T13:34:29;22.00;83.90
1277;DHT22;631;51.024;13.826;2023-05-06T13:36:55;21.80;81.60
1277;DHT22;631;51.024;13.826;2023-05-06T13:39:21;21.90;81.10
1277;DHT22;631;51.024;13.826;2023-05-06T13:41:48;21.60;81.70
1277;DHT22;631;51.024;13.826;2023-05-06T13:44:15;21.10;86.10
1277;DHT22;631;51.024;13.826;2023-05-06T13:46:41;20.50;88.40
1277;DHT22;631;51.024;13.826;2023-05-06T13:49:06;20.00;90.90
1277;DHT22;631;51.024;13.826;2023-05-06T13:51:32;19.60;93.10
1277;DHT22;631;51.024;13.826;2023-05-06T13:53:59;19.30;94.30
1277;DHT22;631;51.024;13.826;2023-05-06T13:56:25;19.00;95.70
1277;DHT22;631;51.024;13.826;2023-05-06T13:58:50;18.80;97.10
1277;DHT22;631;51.024;13.826;2023-05-06T14:01:19;18.70;98.40
1277;DHT22;631;51.024;13.826;2023-05-06T14:03:44;18.50;99.10
1277;DHT22;631;51.024;13.826;2023-05-06T14:06:10;18.40;99.90
1277;DHT22;631;51.024;13.826;2023-05-06T14:08:36;18.50;99.90
1277;DHT22;631;51.024;13.826;2023-05-06T14:11:01;19.10;99.90
1277;DHT22;631;51.024;13.826;2023-05-06T14:13:30;19.80;97.60
1277;DHT22;631;51.024;13.826;2023-05-06T14:15:56;20.30;93.80
1277;DHT22;631;51.024;13.826;2023-05-06T14:18:22;20.90;92.00
1277;DHT22;631;51.024;13.826;2023-05-06T14:20:47;21.20;91.30
1277;DHT22;631;51.024;13.826;2023-05-06T14:23:13;21.40;91.00
1277;DHT22;631;51.024;13.826;2023-05-06T14:25:38;21.50;89.50
1277;DHT22;631;51.024;13.826;2023-05-06T14:28:04;21.20;85.80
1277;DHT22;631;51.024;13.826;2023-05-06T14:30:30;20.70;87.30
1277;DHT22;631;51.024;13.826;2023-05-06T14:32:56;20.60;90.20
1277;DHT22;631;51.024;13.826;2023-05-06T14:35:23;20.40;89.00
1277;DHT22;631;51.024;13.826;2023-05-06T14:37:48;20.10;89.10
1277;DHT22;631;51.024;13.826;2023-05-06T14:40:15;20.00;91.10
1277;DHT22;631;51.024;13.826;2023-05-06T14:42:40;19.60;92.00
1277;DHT22;631;51.024;13.826;2023-05-06T14:45:06;19.10;93.30
1277;DHT22;631;51.024;13.826;2023-05-06T14:47:32;18.70;94.60
1277;DHT22;631;51.024;13.826;2023-05-06T14:49:58;18.30;96.20
1277;DHT22;631;51.024;13.826;2023-05-06T14:52:24;18.20;97.70
1277;DHT22;631;51.024;13.826;2023-05-06T14:54:49;18.00;99.10
1277;DHT22;631;51.024;13.826;2023-05-06T14:57:15;18.10;99.70
1277;DHT22;631;51.024;13.826;2023-05-06T14:59:41;18.20;98.60
1277;DHT22;631;51.024;13.826;2023-05-06T15:02:08;18.10;98.70
1277;DHT22;631;51.024;13.826;2023-05-06T15:04:34;18.00;99.60
1277;DHT22;631;51.024;13.826;2023-05-06T15:07:01;18.00;99.40
1277;DHT22;631;51.024;13.826;2023-05-06T15:09:27;17.90;99.70
1277;DHT22;631;51.024;13.826;2023-05-06T15:11:52;17.80;99.90
1277;DHT22;631;51.024;13.826;2023-05-06T15:14:18;18.20;99.90
1277;DHT22;631;51.024;13.826;2023-05-06T15:16:44;18.60;97.60
1277;DHT22;631;51.024;13.826;2023-05-06T15:19:10;18.80;97.50
1277;DHT22;631;51.024;13.826;2023-05-06T15:21:35;19.00;96.70
1277;DHT22;631;51.024;13.826;2023-05-06T15:24:01;19.10;95.80
1277;DHT22;631;51.024;13.826;2023-05-06T15:26:27;18.80;94.80
1277;DHT22;631;51.024;13.826;2023-05-06T15:28:52;18.60;94.90
1277;DHT22;631;51.024;13.826;2023-05-06T15:31:18;18.40;95.90
1277;DHT22;631;51.024;13.826;2023-05-06T15:33:44;18.10;96.30
1277;DHT22;631;51.024;13.826;2023-05-06T15:36:10;17.80;97.50
1277;DHT22;631;51.024;13.826;2023-05-06T15:41:17;17.60;99.20
1277;DHT22;631;51.024;13.826;2023-05-06T15:43:42;17.70;99.60
1277;DHT22;631;51.024;13.826;2023-05-06T15:46:08;18.00;98.80
1277;DHT22;631;51.024;13.826;2023-05-06T15:48:33;18.30;97.30
1277;DHT22;631;51.024;13.826;2023-05-06T15:50:59;18.20;96.80
1277;DHT22;631;51.024;13.826;2023-05-06T15:53:25;18.20;96.30
1277;DHT22;631;51.024;13.826;2023-05-06T15:55:50;18.10;96.10
1277;DHT22;631;51.024;13.826;2023-05-06T15:58:16;18.00;97.10
1277;DHT22;631;51.024;13.826;2023-05-06T16:00:41;18.20;97.30
1277;DHT22;631;51.024;13.826;2023-05-06T16:03:07;18.20;96.50
1277;DHT22;631;51.024;13.826;2023-05-06T16:05:33;18.20;96.10
1277;DHT22;631;51.024;13.826;2023-05-06T16:07:59;18.30;95.00
1277;DHT22;631;51.024;13.826;2023-05-06T16:10:25;18.60;94.20
1277;DHT22;631;51.024;13.826;2023-05-06T16:12:50;18.80;94.00
1277;DHT22;631;51.024;13.826;2023-05-06T16:15:16;19.10;94.30
1277;DHT22;631;51.024;13.826;2023-05-06T16:17:42;19.30;92.90
1277;DHT22;631;51.024;13.826;2023-05-06T16:20:08;19.30;92.70
1277;DHT22;631;51.024;13.826;2023-05-06T16:22:40;19.10;92.70
1277;DHT22;631;51.024;13.826;2023-05-06T16:25:05;18.90;92.90
1277;DHT22;631;51.024;13.826;2023-05-06T16:27:34;18.50;94.10
1277;DHT22;631;51.024;13.826;2023-05-06T16:30:00;18.20;95.20
1277;DHT22;631;51.024;13.826;2023-05-06T16:32:25;18.00;95.70